Time;durP1;ratioP1;P1;durP2;ratioP2;P2;SDS_P1;SDS_P2;PMS_P1;PMS_P2;Temp;Humidity;BMP_temperature;BMP_pressure;BME280_temperature;BME280_humidity;BME280_pressure;Samples;Min_cycle;Max_cycle;Signal;HPM_P1;HPM_P2
2023/07/18 00:00:17;;;;;;;3.75;2.40;;;25.20;50.20;;;;;;6140784;22;86876;-85
2023/07/18 00:02:46;;;;;;;2.60;2.05;;;25.20;49.70;;;;;;6112293;22;90203;-85
2023/07/18 00:05:12;;;;;;;2.47;2.20;;;25.20;49.70;;;;;;6140222;22;87623;-85
2023/07/18 00:07:41;;;;;;;3.20;2.60;;;25.20;49.70;;;;;;6111897;22;88537;-85
2023/07/18 00:10:09;;;;;;;3.45;2.13;;;25.30;50.10;;;;;;6139627;22;87443;-86
2023/07/18 00:12:35;;;;;;;3.05;2.38;;;25.20;50.00;;;;;;6100782;22;90995;-85
2023/07/18 00:15:03;;;;;;;3.15;2.28;;;25.20;49.70;;;;;;6112033;22;90481;-86
2023/07/18 00:17:31;;;;;;;3.70;2.15;;;25.20;49.70;;;;;;6112867;22;87686;-87
2023/07/18 00:19:58;;;;;;;2.58;2.08;;;25.20;49.90;;;;;;6140417;22;87086;-85
2023/07/18 00:22:23;;;;;;;2.28;2.00;;;25.20;50.00;;;;;;6112746;22;90679;-85
2023/07/18 00:24:49;;;;;;;3.05;2.20;;;25.20;49.80;;;;;;6113072;22;90294;-86
2023/07/18 00:27:15;;;;;;;3.03;1.98;;;25.20;49.90;;;;;;6139421;22;87455;-85
2023/07/18 00:29:41;;;;;;;2.30;2.10;;;25.20;49.90;;;;;;6101042;22;89694;-85
2023/07/18 00:32:07;;;;;;;3.08;2.38;;;25.20;49.90;;;;;;6112286;22;91214;-85
2023/07/18 00:34:32;;;;;;;2.42;2.22;;;25.20;50.10;;;;;;6140647;22;88757;-85
2023/07/18 00:36:58;;;;;;;2.30;2.10;;;25.20;50.10;;;;;;6139500;22;87526;-85
2023/07/18 00:39:24;;;;;;;2.38;2.00;;;25.20;49.90;;;;;;6138691;22;87123;-86
2023/07/18 00:41:49;;;;;;;2.80;2.50;;;25.20;49.80;;;;;;6140023;22;87553;-86
2023/07/18 00:44:15;;;;;;;3.03;2.20;;;25.20;49.90;;;;;;6140256;22;87522;-86
2023/07/18 00:46:41;;;;;;;2.50;2.17;;;25.20;49.90;;;;;;6111998;22;87762;-86
2023/07/18 00:49:08;;;;;;;2.75;2.10;;;25.20;50.20;;;;;;6140256;22;86911;-86
2023/07/18 00:51:34;;;;;;;3.28;2.17;;;25.20;50.30;;;;;;6111711;22;90183;-86
2023/07/18 00:54:00;;;;;;;3.08;2.13;;;25.10;49.90;;;;;;6112567;22;88884;-86
2023/07/18 00:56:26;;;;;;;2.78;1.90;;;25.20;49.80;;;;;;6139115;22;88334;-86
2023/07/18 00:58:53;;;;;;;2.05;1.85;;;25.20;49.90;;;;;;6112394;22;89369;-86
2023/07/18 01:01:19;;;;;;;3.70;1.88;;;25.20;49.80;;;;;;6140388;22;88619;-86
2023/07/18 01:03:44;;;;;;;2.58;1.90;;;25.20;49.70;;;;;;6123388;22;87495;-86
2023/07/18 01:06:11;;;;;;;2.25;1.77;;;25.10;49.70;;;;;;6138716;22;87202;-86
2023/07/18 01:08:39;;;;;;;2.72;2.17;;;25.10;50.10;;;;;;6139669;22;88070;-85
2023/07/18 01:11:05;;;;;;;2.17;1.98;;;25.10;49.80;;;;;;6098135;22;90449;-86
2023/07/18 01:13:31;;;;;;;2.47;1.88;;;25.10;49.90;;;;;;6138406;22;87445;-86
2023/07/18 01:15:57;;;;;;;2.97;2.33;;;25.10;49.70;;;;;;6112691;22;87377;-85
2023/07/18 01:18:22;;;;;;;2.35;2.15;;;25.10;49.80;;;;;;6099150;22;88787;-86
2023/07/18 01:20:48;;;;;;;2.40;2.13;;;25.10;50.10;;;;;;6138454;22;89500;-86
2023/07/18 01:23:14;;;;;;;2.22;1.85;;;25.10;49.90;;;;;;6111910;22;91679;-86
2023/07/18 01:25:41;;;;;;;2.28;1.98;;;25.10;50.30;;;;;;6140755;22;87205;-85
2023/07/18 01:28:07;;;;;;;2.97;2.35;;;25.10;49.90;;;;;;6139870;22;87111;-86
2023/07/18 01:30:33;;;;;;;2.83;2.10;;;25.10;49.90;;;;;;6123923;22;88025;-85
2023/07/18 01:32:59;;;;;;;2.70;2.15;;;25.10;50.00;;;;;;6111448;22;88753;-85
2023/07/18 01:35:26;;;;;;;2.42;1.77;;;25.10;50.10;;;;;;6139817;22;87596;-85
2023/07/18 01:37:54;;;;;;;2.53;1.80;;;25.10;49.90;;;;;;6112748;22;89111;-86
2023/07/18 01:40:20;;;;;;;2.72;1.52;;;25.10;49.80;;;;;;6112252;22;90463;-86
2023/07/18 01:42:48;;;;;;;2.50;2.28;;;25.10;50.10;;;;;;6138033;22;89077;-85
2023/07/18 01:45:14;;;;;;;2.25;1.92;;;25.10;49.90;;;;;;6124602;22;88842;-86
2023/07/18 01:47:40;;;;;;;2.03;1.83;;;25.10;49.70;;;;;;6111584;22;87776;-85
2023/07/18 01:50:07;;;;;;;2.38;2.17;;;25.00;49.60;;;;;;6125321;22;87713;-85
2023/07/18 01:52:36;;;;;;;2.65;1.85;;;25.10;50.40;;;;;;6139731;22;87863;-85
2023/07/18 01:55:03;;;;;;;1.88;1.67;;;25.10;50.20;;;;;;6112819;22;87447;-85
2023/07/18 01:57:38;;;;;;;2.55;1.85;;;25.10;50.20;;;;;;6111067;22;89686;-86
2023/07/18 02:00:05;;;;;;;2.70;1.98;;;25.10;50.20;;;;;;6111705;22;89447;-85
2023/07/18 02:02:31;;;;;;;2.13;1.73;;;25.10;50.30;;;;;;6140116;22;87396;-86
2023/07/18 02:04:58;;;;;;;2.97;2.22;;;25.10;50.30;;;;;;6138641;22;87487;-86
2023/07/18 02:07:25;;;;;;;2.22;2.03;;;25.10;50.30;;;;;;6140078;22;87439;-85
2023/07/18 02:09:51;;;;;;;2.20;1.90;;;25.00;50.10;;;;;;6098425;22;91761;-86
2023/07/18 02:12:17;;;;;;;2.10;1.90;;;25.00;50.30;;;;;;6137019;22;91109;-86
2023/07/18 02:14:43;;;;;;;2.15;1.95;;;25.00;50.40;;;;;;6097809;22;87855;-86
2023/07/18 02:17:08;;;;;;;2.13;1.73;;;25.00;50.20;;;;;;6138088;22;87276;-86
2023/07/18 02:19:35;;;;;;;3.78;1.65;;;25.00;50.60;;;;;;6139836;22;87858;-85
2023/07/18 02:22:01;;;;;;;1.80;1.70;;;25.00;50.30;;;;;;6111862;22;90048;-86
2023/07/18 02:24:27;;;;;;;2.42;2.17;;;25.00;50.40;;;;;;6138956;22;86906;-86
2023/07/18 02:26:54;;;;;;;2.28;2.00;;;25.00;50.40;;;;;;6110933;22;89189;-86
2023/07/18 02:29:20;;;;;;;1.90;1.80;;;25.00;50.70;;;;;;6110701;22;91705;-85
2023/07/18 02:31:46;;;;;;;2.00;1.80;;;25.00;50.30;;;;;;6113047;22;90987;-86
2023/07/18 02:34:12;;;;;;;1.70;1.60;;;25.00;50.50;;;;;;6123716;22;88285;-86
2023/07/18 02:36:38;;;;;;;2.13;1.92;;;25.00;50.80;;;;;;6139245;22;87505;-85
2023/07/18 02:39:07;;;;;;;1.70;1.60;;;25.00;50.50;;;;;;6138881;22;87610;-86
2023/07/18 02:41:33;;;;;;;3.47;2.00;;;25.00;50.40;;;;;;6111567;22;89758;-86
2023/07/18 02:43:59;;;;;;;2.38;1.73;;;25.00;50.40;;;;;;6139041;22;87576;-85
2023/07/18 02:46:24;;;;;;;1.58;1.48;;;24.90;50.40;;;;;;6113127;22;89179;-85
2023/07/18 02:48:50;;;;;;;2.28;1.92;;;24.90;50.50;;;;;;6139594;22;93649;-86
2023/07/18 02:51:16;;;;;;;1.90;1.70;;;24.90;50.50;;;;;;6139776;22;86850;-85
2023/07/18 02:53:41;;;;;;;1.88;1.67;;;24.90;50.30;;;;;;6111964;22;87903;-86
2023/07/18 02:56:07;;;;;;;1.73;1.58;;;25.00;50.40;;;;;;6139418;22;87347;-84
2023/07/18 02:58:32;;;;;;;2.05;1.83;;;24.90;50.30;;;;;;6112457;22;91184;-85
2023/07/18 03:00:59;;;;;;;1.50;1.40;;;24.90;50.40;;;;;;6111861;22;91265;-85
2023/07/18 03:03:26;;;;;;;1.50;1.40;;;24.90;50.70;;;;;;6138041;22;87679;-85
2023/07/18 03:05:53;;;;;;;1.70;1.50;;;24.90;50.30;;;;;;6138659;22;87492;-86
2023/07/18 03:08:19;;;;;;;2.10;1.75;;;24.90;50.30;;;;;;6137899;22;88220;-85
2023/07/18 03:10:46;;;;;;;3.80;2.03;;;24.90;50.40;;;;;;6111412;22;89953;-85
2023/07/18 03:13:12;;;;;;;2.13;1.73;;;24.90;50.70;;;;;;6111747;22;87363;-86
2023/07/18 03:15:39;;;;;;;1.90;1.65;;;24.90;50.90;;;;;;6124285;22;87052;-84
2023/07/18 03:18:06;;;;;;;1.92;1.80;;;24.90;50.60;;;;;;6139583;22;87677;-86
2023/07/18 03:20:32;;;;;;;1.83;1.65;;;24.90;50.90;;;;;;6124198;22;87577;-85
2023/07/18 03:22:57;;;;;;;2.20;1.83;;;24.90;50.50;;;;;;6138054;22;88592;-86
2023/07/18 03:25:23;;;;;;;1.70;1.60;;;24.80;50.40;;;;;;6140166;22;87951;-85
2023/07/18 03:27:49;;;;;;;2.17;1.98;;;24.90;50.50;;;;;;6096952;22;90611;-85
2023/07/18 03:30:16;;;;;;;1.83;1.50;;;24.90;50.60;;;;;;6097379;22;90327;-85
2023/07/18 03:32:42;;;;;;;2.00;1.80;;;24.90;50.50;;;;;;6110919;22;87630;-86
2023/07/18 03:35:10;;;;;;;2.45;1.92;;;24.90;50.70;;;;;;6111135;22;89250;-85
2023/07/18 03:37:36;;;;;;;1.80;1.60;;;24.90;50.40;;;;;;6139996;22;87617;-86
2023/07/18 03:40:06;;;;;;;2.08;1.83;;;24.90;51.00;;;;;;6099393;22;89824;-85
2023/07/18 03:42:31;;;;;;;;;;;24.80;50.40;;;;;;6140704;22;87615;-85
2023/07/18 03:44:57;;;;;;;1.83;1.63;;;24.90;50.60;;;;;;6141243;22;87318;-86
2023/07/18 03:47:22;;;;;;;3.25;1.70;;;24.90;50.50;;;;;;6137644;22;89551;-85
2023/07/18 03:49:49;;;;;;;2.78;1.90;;;24.90;51.00;;;;;;6112614;22;91258;-85
2023/07/18 03:52:15;;;;;;;1.60;1.20;;;24.80;51.00;;;;;;6125347;22;87626;-85
2023/07/18 03:54:40;;;;;;;1.90;1.70;;;24.80;50.50;;;;;;6110332;22;87541;-85
2023/07/18 03:57:06;;;;;;;2.15;1.75;;;24.80;50.20;;;;;;6111409;22;90933;-85
2023/07/18 03:59:32;;;;;;;1.70;1.50;;;24.80;50.40;;;;;;6123832;22;88031;-84
2023/07/18 04:01:57;;;;;;;1.70;1.60;;;24.80;50.20;;;;;;6123304;22;87304;-84
2023/07/18 04:04:23;;;;;;;2.85;1.60;;;24.80;50.20;;;;;;6138953;22;86738;-86
2023/07/18 04:06:49;;;;;;;1.45;1.35;;;24.80;50.10;;;;;;6123267;22;88021;-84
2023/07/18 04:09:14;;;;;;;2.10;1.92;;;24.80;50.20;;;;;;6137461;22;87748;-86
2023/07/18 04:11:43;;;;;;;2.17;1.80;;;24.80;50.10;;;;;;6110877;22;88309;-84
2023/07/18 04:14:09;;;;;;;;;;;24.80;50.00;;;;;;6112394;22;89370;-87
2023/07/18 04:16:35;;;;;;;1.55;1.42;;;24.80;49.90;;;;;;6113014;22;90499;-87
2023/07/18 04:19:00;;;;;;;3.22;1.63;;;24.80;49.90;;;;;;6122495;22;87691;-86
2023/07/18 04:21:26;;;;;;;2.80;1.80;;;24.80;50.20;;;;;;6112065;22;87352;-87
2023/07/18 04:23:52;;;;;;;1.40;1.30;;;24.80;50.20;;;;;;6139211;22;87357;-86
2023/07/18 04:26:17;;;;;;;1.63;1.40;;;24.80;49.70;;;;;;6139663;22;87995;-86
2023/07/18 04:28:43;;;;;;;1.75;1.50;;;24.80;49.90;;;;;;6140486;22;87380;-87
2023/07/18 04:31:09;;;;;;;1.45;1.35;;;24.80;49.70;;;;;;6139638;22;88249;-86
2023/07/18 04:33:36;;;;;;;1.65;1.52;;;24.80;49.70;;;;;;6112920;22;89470;-87
2023/07/18 04:36:04;;;;;;;2.00;1.90;;;24.80;49.40;;;;;;6139576;22;88979;-87
2023/07/18 04:38:30;;;;;;;1.90;1.70;;;24.90;49.60;;;;;;6124126;22;90539;-87
2023/07/18 04:40:56;;;;;;;1.77;1.45;;;24.90;49.60;;;;;;6111832;22;87673;-88
2023/07/18 04:43:22;;;;;;;2.10;1.48;;;24.90;49.30;;;;;;6140259;22;87403;-88
2023/07/18 04:45:48;;;;;;;1.77;1.50;;;24.90;49.50;;;;;;6138212;22;89071;-86
2023/07/18 04:48:18;;;;;;;1.98;1.60;;;24.90;49.40;;;;;;6112733;22;89897;-88
2023/07/18 04:50:46;;;;;;;1.75;1.65;;;24.90;49.90;;;;;;6111804;22;87816;-87
2023/07/18 04:53:12;;;;;;;1.38;1.27;;;24.90;49.30;;;;;;6140581;22;87491;-87
2023/07/18 04:55:39;;;;;;;1.30;1.20;;;25.00;49.30;;;;;;6139820;22;88224;-87
2023/07/18 04:58:06;;;;;;;1.80;1.52;;;25.00;49.30;;;;;;6111293;22;90248;-87
2023/07/18 05:00:33;;;;;;;1.60;1.50;;;25.00;49.30;;;;;;6112065;22;88711;-86
2023/07/18 05:03:00;;;;;;;1.52;1.30;;;25.00;49.50;;;;;;6139254;22;87041;-87
2023/07/18 05:05:27;;;;;;;1.75;1.58;;;25.00;49.50;;;;;;6112721;22;90462;-87
2023/07/18 05:07:58;;;;;;;2.20;1.80;;;25.00;49.50;;;;;;6097359;22;90014;-88
2023/07/18 05:10:24;;;;;;;1.45;1.35;;;25.00;49.50;;;;;;6137876;22;87331;-87
2023/07/18 05:12:54;;;;;;;1.65;1.50;;;25.10;49.50;;;;;;6111659;22;88117;-88
2023/07/18 05:15:20;;;;;;;2.05;1.40;;;25.10;49.40;;;;;;6111801;22;90698;-87
2023/07/18 05:17:47;;;;;;;2.00;1.50;;;25.10;49.30;;;;;;6099639;22;89848;-87
2023/07/18 05:20:13;;;;;;;1.70;1.25;;;25.10;49.30;;;;;;6112970;22;87111;-87
2023/07/18 05:22:45;;;;;;;3.25;1.48;;;25.20;49.40;;;;;;6113352;22;89266;-87
2023/07/18 05:25:13;;;;;;;1.55;1.45;;;25.20;49.40;;;;;;6138671;22;95002;-87
2023/07/18 05:27:40;;;;;;;1.65;1.35;;;25.20;49.50;;;;;;6138596;22;88860;-87
2023/07/18 05:30:10;;;;;;;1.65;1.45;;;25.20;49.40;;;;;;6100362;22;88186;-86
2023/07/18 05:32:36;;;;;;;1.95;1.52;;;25.20;49.30;;;;;;6124144;22;87266;-86
2023/07/18 05:35:01;;;;;;;1.50;1.38;;;25.20;49.40;;;;;;6112051;22;90552;-88
2023/07/18 05:37:29;;;;;;;1.33;1.20;;;25.20;49.70;;;;;;6113359;22;90528;-88
2023/07/18 05:39:55;;;;;;;2.05;1.50;;;25.20;49.60;;;;;;6139503;22;87179;-86
2023/07/18 05:42:21;;;;;;;1.67;1.33;;;25.20;49.40;;;;;;6139167;22;87019;-86
2023/07/18 05:44:48;;;;;;;1.70;1.45;;;25.20;49.40;;;;;;6111038;22;90566;-88
2023/07/18 05:47:13;;;;;;;1.55;1.42;;;25.20;49.40;;;;;;6138995;22;87670;-87
2023/07/18 05:49:39;;;;;;;1.40;1.30;;;25.30;49.80;;;;;;6113192;22;88506;-87
2023/07/18 05:52:05;;;;;;;1.92;1.60;;;25.20;49.40;;;;;;6112008;22;89310;-87
2023/07/18 05:54:30;;;;;;;1.60;1.40;;;25.20;49.40;;;;;;6112047;22;90797;-87
2023/07/18 05:57:00;;;;;;;1.50;1.40;;;25.30;49.50;;;;;;6111713;22;90627;-87
2023/07/18 05:59:26;;;;;;;;;;;25.20;49.20;;;;;;6140089;22;87443;-88
2023/07/18 06:01:51;;;;;;;1.20;1.10;;;25.30;49.50;;;;;;6140622;22;87740;-87
2023/07/18 06:04:17;;;;;;;1.35;1.20;;;25.30;49.50;;;;;;6112369;22;90245;-87
2023/07/18 06:06:43;;;;;;;1.58;1.48;;;25.30;49.50;;;;;;6098329;22;90155;-87
2023/07/18 06:09:09;;;;;;;1.52;1.42;;;25.30;49.60;;;;;;6111532;22;87710;-87
2023/07/18 06:11:35;;;;;;;1.98;1.60;;;25.30;49.40;;;;;;6140075;22;87542;-87
2023/07/18 06:14:01;;;;;;;1.48;1.20;;;25.40;49.50;;;;;;6138778;22;88894;-86
2023/07/18 06:16:27;;;;;;;1.58;1.30;;;25.40;49.50;;;;;;6112441;22;90670;-87
2023/07/18 06:18:53;;;;;;;1.88;1.40;;;25.40;49.50;;;;;;6111649;22;88315;-87
2023/07/18 06:21:19;;;;;;;3.17;1.98;;;25.40;47.90;;;;;;6112521;22;89354;-88
2023/07/18 06:23:45;;;;;;;8.85;2.22;;;25.40;47.20;;;;;;6111805;22;91108;-88
2023/07/18 06:26:10;;;;;;;8.10;2.13;;;25.40;46.00;;;;;;6138066;22;87561;-86
2023/07/18 06:28:36;;;;;;;7.85;2.13;;;25.40;45.50;;;;;;6112175;22;87025;-87
2023/07/18 06:31:02;;;;;;;5.75;1.98;;;25.30;45.10;;;;;;6139948;22;87864;-87
2023/07/18 06:33:29;;;;;;;7.30;1.95;;;25.30;45.10;;;;;;6138283;22;87667;-88
2023/07/18 06:35:56;;;;;;;7.30;2.47;;;25.20;46.00;;;;;;6112496;22;90173;-88
2023/07/18 06:38:22;;;;;;;12.88;2.45;;;25.30;44.90;;;;;;6112128;22;88547;-86
2023/07/18 06:40:49;;;;;;;11.52;2.05;;;25.30;45.00;;;;;;6139872;22;87153;-86
2023/07/18 06:43:28;;;;;;;;;;;;;;;;;;;;;
2023/07/18 06:45:53;;;;;;;9.20;2.30;;;25.20;45.20;;;;;;6137729;22;89299;-85
2023/07/18 06:48:19;;;;;;;9.52;2.55;;;25.20;45.00;;;;;;6108289;22;87456;-85
2023/07/18 06:50:50;;;;;;;3.97;1.65;;;25.20;44.60;;;;;;6136263;22;87731;-87
2023/07/18 06:53:17;;;;;;;6.55;2.22;;;25.20;44.50;;;;;;6137567;22;87812;-87
2023/07/18 06:55:43;;;;;;;9.50;2.03;;;25.10;44.60;;;;;;6112878;22;91163;-87
2023/07/18 06:58:09;;;;;;;7.63;2.30;;;25.20;44.90;;;;;;6111400;22;87615;-87
2023/07/18 07:00:39;;;;;;;9.20;2.15;;;25.10;44.80;;;;;;6137429;22;87162;-87
2023/07/18 07:03:06;;;;;;;4.63;1.85;;;25.10;44.40;;;;;;6112832;22;90709;-87
2023/07/18 07:05:37;;;;;;;7.07;2.22;;;25.10;44.70;;;;;;6111217;22;91014;-87
2023/07/18 07:08:04;;;;;;;5.05;1.90;;;25.10;45.00;;;;;;6136392;22;87370;-87
2023/07/18 07:10:30;;;;;;;7.55;2.03;;;25.00;44.90;;;;;;6138838;22;87319;-87
2023/07/18 07:12:56;;;;;;;7.82;2.42;;;25.00;44.80;;;;;;6136327;22;88930;-87
2023/07/18 07:15:21;;;;;;;7.25;2.03;;;25.10;44.40;;;;;;6109525;22;90851;-87
2023/07/18 07:17:47;;;;;;;4.45;1.70;;;25.00;44.70;;;;;;6135597;22;87129;-88
2023/07/18 07:20:14;;;;;;;4.45;1.92;;;25.00;44.70;;;;;;6142169;22;87096;-87
2023/07/18 07:22:43;;;;;;;6.22;1.52;;;25.10;44.60;;;;;;6115316;22;90576;-89
2023/07/18 07:25:13;;;;;;;13.07;3.80;;;24.90;44.70;;;;;;6111056;22;90573;-88
2023/07/18 07:27:39;;;;;;;6.85;2.35;;;25.00;44.60;;;;;;6109061;22;88806;-88
2023/07/18 07:30:06;;;;;;;10.38;3.08;;;25.00;44.60;;;;;;6109567;22;89636;-87
2023/07/18 07:32:32;;;;;;;11.60;2.88;;;25.00;44.70;;;;;;6109916;22;90517;-88
2023/07/18 07:34:58;;;;;;;19.48;5.07;;;24.90;44.30;;;;;;6138463;22;87849;-88
2023/07/18 07:37:23;;;;;;;19.33;4.97;;;25.00;44.50;;;;;;6138441;22;87382;-86
2023/07/18 07:39:49;;;;;;;26.88;7.15;;;25.00;44.40;;;;;;6137377;22;87719;-86
2023/07/18 07:42:15;;;;;;;18.38;4.60;;;25.00;44.90;;;;;;6136859;22;88530;-88
2023/07/18 07:44:45;;;;;;;17.50;4.47;;;25.10;44.50;;;;;;6109490;22;89410;-87
2023/07/18 07:47:10;;;;;;;16.55;4.30;;;25.10;44.30;;;;;;6109619;22;87083;-87
2023/07/18 07:49:36;;;;;;;18.77;3.85;;;25.00;44.10;;;;;;6110681;22;89000;-88
2023/07/18 07:52:02;;;;;;;13.23;3.28;;;25.10;44.30;;;;;;6137532;22;89318;-88
2023/07/18 07:54:27;;;;;;;12.40;3.20;;;25.00;44.20;;;;;;6112224;22;91297;-88
2023/07/18 07:57:16;;;;;;;11.65;2.85;;;25.00;43.90;;;;;;6119506;22;87060;-87
2023/07/18 07:59:42;;;;;;;12.90;3.78;;;25.00;43.50;;;;;;6124828;22;88112;-87
2023/07/18 08:02:08;;;;;;;12.48;3.28;;;25.10;44.00;;;;;;6116436;22;91539;-87
2023/07/18 08:04:36;;;;;;;10.25;2.33;;;25.10;44.00;;;;;;6112904;22;88975;-88
2023/07/18 08:07:03;;;;;;;8.10;2.17;;;25.10;44.40;;;;;;6115091;22;87227;-88
2023/07/18 08:09:29;;;;;;;7.32;2.60;;;25.10;43.80;;;;;;6114713;22;89578;-88
2023/07/18 08:11:55;;;;;;;6.00;2.17;;;25.10;43.50;;;;;;6113479;22;90043;-88
2023/07/18 08:14:21;;;;;;;6.40;2.38;;;25.00;43.30;;;;;;6114543;22;90395;-88
2023/07/18 08:16:47;;;;;;;6.47;1.70;;;25.10;43.50;;;;;;6120563;22;88507;-87
2023/07/18 08:19:13;;;;;;;6.65;1.70;;;25.00;44.00;;;;;;6145844;22;88290;-87
2023/07/18 08:21:38;;;;;;;5.40;1.92;;;25.00;43.50;;;;;;6119517;22;90493;-88
2023/07/18 08:24:04;;;;;;;8.30;1.98;;;25.00;43.00;;;;;;6119260;22;90729;-87
2023/07/18 08:26:36;;;;;;;8.73;1.98;;;25.00;43.40;;;;;;6119475;22;87266;-87
2023/07/18 08:29:03;;;;;;;5.93;2.08;;;25.00;43.60;;;;;;6122649;22;87706;-88
2023/07/18 08:31:29;;;;;;;5.78;1.85;;;24.90;43.40;;;;;;6138401;22;87689;-88
2023/07/18 08:33:55;;;;;;;3.40;1.40;;;25.00;43.70;;;;;;6138258;22;87763;-88
2023/07/18 08:36:21;;;;;;;5.20;1.73;;;25.00;43.80;;;;;;6111654;22;86899;-88
2023/07/18 08:38:49;;;;;;;5.47;1.45;;;25.10;43.50;;;;;;6111126;22;89510;-88
2023/07/18 08:41:22;;;;;;;3.83;1.30;;;25.00;43.60;;;;;;6109244;22;89909;-89
2023/07/18 08:43:51;;;;;;;3.97;1.52;;;25.10;44.10;;;;;;6140200;22;88001;-88
2023/07/18 08:46:17;;;;;;;;;;;25.00;43.70;;;;;;6113063;22;87774;-89
2023/07/18 08:48:55;;;;;;;5.25;1.48;;;25.00;44.10;;;;;;6139857;22;88028;-88
2023/07/18 08:51:21;;;;;;;5.28;1.55;;;25.10;44.00;;;;;;6138327;22;88929;-88
2023/07/18 08:53:47;;;;;;;2.97;1.23;;;25.10;44.00;;;;;;6096279;22;90685;-88
2023/07/18 08:56:15;;;;;;;4.40;1.60;;;25.00;43.80;;;;;;6111501;22;87339;-87
2023/07/18 08:58:43;;;;;;;3.80;1.40;;;25.00;43.60;;;;;;6140251;22;87708;-88
2023/07/18 09:01:09;;;;;;;3.90;1.30;;;25.10;43.70;;;;;;6138318;22;88660;-89
2023/07/18 09:03:37;;;;;;;3.70;1.30;;;25.00;44.20;;;;;;6138888;22;88023;-87
2023/07/18 09:06:15;;;;;;;4.35;1.77;;;25.00;43.60;;;;;;6111667;22;88169;-89
2023/07/18 09:08:44;;;;;;;4.35;1.75;;;25.00;43.90;;;;;;6107310;22;87431;-89
2023/07/18 09:11:12;;;;;;;6.70;1.50;;;25.00;44.20;;;;;;6109524;22;89270;-87
2023/07/18 09:13:42;;;;;;;3.28;1.23;;;25.00;43.80;;;;;;6111261;22;90199;-89
2023/07/18 09:16:17;;;;;;;3.78;1.30;;;25.00;43.90;;;;;;6110567;22;87170;-88
2023/07/18 09:22:43;;;;;;;2.17;1.20;;;25.00;44.10;;;;;;6020312;23;87920;-89
2023/07/18 09:25:21;;;;;;;2.97;1.23;;;25.00;43.60;;;;;;6008505;23;89716;-89
2023/07/18 09:31:25;;;;;;;2.22;1.17;;;25.00;43.70;;;;;;6100034;23;87737;-88
2023/07/18 09:34:13;;;;;;;2.97;1.02;;;24.90;43.30;;;;;;6089728;22;90431;-89
2023/07/18 09:40:43;;;;;;;3.60;1.25;;;24.90;43.40;;;;;;6090132;22;88597;-88
2023/07/18 09:46:21;;;;;;;3.17;1.17;;;24.90;43.60;;;;;;6016533;23;87796;-88
2023/07/18 09:49:28;;;;;;;3.90;1.50;;;25.00;43.30;;;;;;5977646;23;88189;-88
2023/07/18 09:53:19;;;;;;;3.08;1.10;;;24.90;43.80;;;;;;5945632;23;87596;-87
2023/07/18 09:55:48;;;;;;;2.38;1.30;;;25.10;44.00;;;;;;5904346;23;88306;-89
2023/07/18 10:05:50;;;;;;;;;;;;;;;;;;;;;
2023/07/18 10:08:48;;;;;;;2.05;0.88;;;24.90;43.30;;;;;;5967782;23;93724;-88
2023/07/18 10:11:50;;;;;;;5.27;1.17;;;25.00;43.80;;;;;;6003734;23;92146;-88
2023/07/18 10:17:36;;;;;;;4.45;1.30;;;25.10;43.60;;;;;;5996399;23;87525;-88
2023/07/18 10:20:10;;;;;;;5.72;1.65;;;25.00;42.90;;;;;;6056820;22;88689;-88
2023/07/18 10:22:58;;;;;;;4.05;1.38;;;25.00;43.50;;;;;;6116303;22;90539;-90
2023/07/18 10:26:08;;;;;;;3.92;1.42;;;25.00;43.60;;;;;;6115845;22;92789;-89
2023/07/18 10:28:45;;;;;;;3.60;1.20;;;25.00;43.20;;;;;;6114500;22;87402;-91
2023/07/18 10:31:33;;;;;;;4.43;1.10;;;25.00;43.00;;;;;;6117215;22;87642;-88
2023/07/18 10:34:25;;;;;;;8.82;2.35;;;25.00;43.40;;;;;;6137995;22;88917;-88
2023/07/18 10:36:59;;;;;;;4.47;1.40;;;25.00;43.50;;;;;;6108881;22;91173;-87
2023/07/18 10:39:38;;;;;;;3.05;1.30;;;24.90;43.90;;;;;;6109183;22;87546;-89
2023/07/18 10:42:21;;;;;;;14.30;2.22;;;24.90;44.10;;;;;;6137275;22;87693;-88
2023/07/18 10:44:48;;;;;;;15.30;2.83;;;24.90;44.20;;;;;;6137669;22;88050;-88
2023/07/18 10:47:18;;;;;;;27.20;5.13;;;24.90;44.40;;;;;;6138688;22;88134;-87
2023/07/18 10:49:45;;;;;;;19.10;5.32;;;25.00;44.10;;;;;;6112938;22;87388;-89
2023/07/18 10:52:11;;;;;;;23.70;6.35;;;25.00;44.90;;;;;;6101116;22;88025;-88
2023/07/18 10:54:37;;;;;;;23.83;6.35;;;25.00;44.20;;;;;;6139478;22;87970;-88
2023/07/18 10:57:03;;;;;;;37.22;8.05;;;25.00;44.80;;;;;;6100998;22;90394;-88
2023/07/18 10:59:29;;;;;;;34.00;8.65;;;25.00;44.20;;;;;;6112634;22;88449;-88
2023/07/18 11:01:59;;;;;;;39.10;8.57;;;25.00;44.40;;;;;;6112763;22;90186;-88
2023/07/18 11:04:24;;;;;;;41.38;9.35;;;25.00;44.60;;;;;;6112964;22;90263;-88
2023/07/18 11:06:53;;;;;;;34.97;9.90;;;25.00;44.80;;;;;;6139988;22;87649;-88
2023/07/18 11:09:19;;;;;;;40.70;10.43;;;25.00;44.40;;;;;;6140318;22;87307;-88
2023/07/18 11:11:44;;;;;;;35.78;10.27;;;25.00;44.50;;;;;;6139596;22;87197;-86
2023/07/18 11:14:10;;;;;;;35.92;9.52;;;25.00;44.90;;;;;;6136206;22;90709;-88
2023/07/18 11:16:36;;;;;;;48.63;10.73;;;25.00;44.50;;;;;;6140397;22;87422;-88
2023/07/18 11:19:05;;;;;;;47.40;11.18;;;25.00;44.40;;;;;;6124273;22;87884;-88
2023/07/18 11:21:32;;;;;;;40.55;10.40;;;25.00;44.70;;;;;;6112662;22;89146;-88
2023/07/18 11:23:59;;;;;;;31.27;9.80;;;25.00;44.70;;;;;;6110309;22;91329;-87
2023/07/18 11:26:25;;;;;;;38.63;10.70;;;25.10;44.40;;;;;;6139509;22;88629;-88
2023/07/18 11:28:53;;;;;;;30.08;8.60;;;25.10;45.00;;;;;;6139446;22;87950;-87
2023/07/18 11:31:24;;;;;;;40.25;10.95;;;25.00;44.50;;;;;;6113653;22;89933;-89
2023/07/18 11:33:51;;;;;;;36.00;9.93;;;25.00;44.70;;;;;;6100564;22;90843;-88
2023/07/18 11:36:17;;;;;;;25.13;7.35;;;25.00;44.80;;;;;;6115131;22;90640;-88
2023/07/18 11:38:44;;;;;;;32.40;9.15;;;25.00;44.50;;;;;;6114142;22;87731;-88
2023/07/18 11:41:14;;;;;;;35.53;8.65;;;25.10;44.70;;;;;;6113766;22;89243;-89
2023/07/18 11:43:41;;;;;;;31.13;8.60;;;25.10;45.00;;;;;;6114451;22;89140;-89
2023/07/18 11:46:09;;;;;;;24.85;8.15;;;25.00;44.70;;;;;;6113466;22;90162;-87
2023/07/18 11:48:34;;;;;;;29.55;8.27;;;25.10;44.50;;;;;;6113799;22;88649;-90
2023/07/18 11:51:06;;;;;;;27.95;7.93;;;25.10;44.50;;;;;;6114293;22;90015;-89
2023/07/18 11:53:32;;;;;;;23.00;7.28;;;25.10;44.60;;;;;;6114742;22;90590;-88
2023/07/18 11:55:57;;;;;;;24.83;7.18;;;25.10;44.70;;;;;;6115058;22;89609;-87
2023/07/18 11:58:24;;;;;;;20.73;6.32;;;25.10;44.80;;;;;;6115229;22;87358;-86
2023/07/18 12:00:50;;;;;;;22.90;6.90;;;25.10;44.70;;;;;;6140667;22;87271;-87
2023/07/18 12:03:15;;;;;;;17.08;4.50;;;25.10;44.70;;;;;;6113062;22;90839;-87
2023/07/18 12:05:41;;;;;;;18.35;6.88;;;25.10;44.50;;;;;;6141246;22;88263;-87
2023/07/18 12:08:06;;;;;;;19.20;6.53;;;25.10;44.70;;;;;;6141481;22;87532;-87
2023/07/18 12:10:33;;;;;;;20.10;5.72;;;25.10;44.80;;;;;;6143099;22;86894;-87
2023/07/18 12:12:59;;;;;;;16.17;4.93;;;25.10;44.40;;;;;;6099374;22;91768;-86
2023/07/18 12:15:25;;;;;;;16.63;4.97;;;25.10;44.50;;;;;;6113416;22;91122;-87
2023/07/18 12:17:51;;;;;;;17.77;5.93;;;25.10;44.90;;;;;;6113941;22;87624;-88
2023/07/18 12:20:17;;;;;;;15.68;5.13;;;25.10;45.20;;;;;;6115086;22;89056;-86
2023/07/18 12:22:42;;;;;;;12.13;4.80;;;25.10;44.50;;;;;;6114774;22;90371;-87
2023/07/18 12:25:08;;;;;;;13.55;4.90;;;25.20;44.80;;;;;;6113517;22;90489;-87
2023/07/18 12:27:34;;;;;;;11.45;4.20;;;25.10;45.00;;;;;;6141438;22;87397;-87
2023/07/18 12:29:59;;;;;;;14.23;4.20;;;25.20;45.00;;;;;;6142092;22;86222;-86
2023/07/18 12:32:25;;;;;;;15.32;4.95;;;25.10;44.70;;;;;;6141467;22;87971;-86
2023/07/18 12:34:51;;;;;;;13.43;4.32;;;25.10;44.60;;;;;;6115400;22;89706;-86
2023/07/18 12:37:17;;;;;;;9.95;4.00;;;25.10;44.70;;;;;;6115274;22;88695;-85
2023/07/18 12:39:43;;;;;;;10.57;3.75;;;25.20;44.80;;;;;;6141409;22;87577;-86
2023/07/18 12:42:09;;;;;;;9.07;3.78;;;25.10;44.80;;;;;;6114640;22;90397;-87
2023/07/18 12:44:46;;;;;;;12.45;4.32;;;25.10;44.90;;;;;;6114080;22;89360;-85
2023/07/18 12:47:12;;;;;;;11.45;4.38;;;25.20;44.90;;;;;;6140969;22;88088;-87
2023/07/18 12:49:38;;;;;;;9.48;3.47;;;25.20;44.70;;;;;;6142289;22;87534;-87
2023/07/18 12:52:06;;;;;;;10.82;3.17;;;25.20;45.00;;;;;;6125324;22;87626;-86
2023/07/18 12:54:32;;;;;;;11.20;3.95;;;25.20;44.90;;;;;;6113963;22;90045;-86
2023/07/18 12:56:59;;;;;;;7.90;3.47;;;25.20;45.00;;;;;;6141365;22;87746;-87
2023/07/18 12:59:25;;;;;;;8.90;3.67;;;25.20;45.00;;;;;;6114468;22;89152;-86
2023/07/18 13:01:51;;;;;;;7.40;3.25;;;25.20;45.10;;;;;;6141058;22;88545;-87
2023/07/18 13:04:17;;;;;;;9.88;3.20;;;25.20;45.10;;;;;;6115057;22;91235;-86
2023/07/18 13:06:42;;;;;;;9.60;3.70;;;25.20;46.00;;;;;;6114451;22;87593;-87
2023/07/18 13:09:08;;;;;;;11.02;3.50;;;25.20;45.30;;;;;;6113349;22;89119;-87
2023/07/18 13:11:34;;;;;;;9.32;3.22;;;25.20;45.30;;;;;;6114742;22;90241;-87
2023/07/18 13:13:59;;;;;;;7.03;3.03;;;25.20;45.10;;;;;;6113237;22;89769;-86
2023/07/18 13:16:25;;;;;;;7.32;3.10;;;25.20;45.10;;;;;;6140401;22;87290;-86